KGFA/GFA METAR and TAF weather

Enter ICAO airport designator
Station Type Date Time Source
KGFA METAR 2022/05/23 14:58 UTC NOAA

KGFA 231458Z AUTO 24010KT 10SM CLR 12/M01 A3011 RMK AO2 SLP208 T01201010 50000 $


Station Type Date Time Source
KGFA Decoded METAR 2022/05/23 14:58 UTC NOAA

Malmstrom Air Force Base, MT, United States (KGFA) 47-30N 111-11W
May 23, 2022 - 10:58 AM EDT / 2022.05.23 1458 UTC
Wind: from the WSW (240 degrees) at 12 MPH (10 KT):0
Visibility: 10 mile(s):0
Sky conditions: clear
Temperature: 53.6 F (12.0 C)
Dew Point: 30.2 F (-1.0 C)
Relative Humidity: 40%
Pressure (altimeter): 30.11 in. Hg (1019 hPa)
Pressure tendency: 0.00 inches (0.0 hPa) higher than three hours ago
ob: KGFA 231458Z AUTO 24010KT 10SM CLR 12/M01 A3011 RMK AO2 SLP208 T01201010 50000
cycle: 15

Station Type Date Time Source
KGFA TAF 2022/05/23 12:08 UTC NOAA

TAF KGFA 231200Z 2312/2418 VRB06KT 9999 SCT100 QNH3009INS
BECMG 2315/2316 VRB06KT 9999 FEW100 QNH3002INS
BECMG 2320/2321 VRB06KT 9999 BKN090 QNH2997INS
TEMPO 2321/2401 9000 -SHRA TX17/2320Z TN03/2312Z

Example: see airport list